createdAt,value
2019-02-27T00:01:34.933Z,68.10
2019-02-27T00:04:03.082Z,69.05
2019-02-27T00:06:31.796Z,68.35
2019-02-27T00:09:00.527Z,71.02
2019-02-27T00:11:31.059Z,70.03
2019-02-27T00:13:59.095Z,67.82
2019-02-27T00:16:27.463Z,66.95
2019-02-27T00:18:58.524Z,74.42
2019-02-27T00:21:25.870Z,72.70
2019-02-27T00:23:56.746Z,71.45
2019-02-27T00:26:24.295Z,68.52
2019-02-27T00:28:55.992Z,73.22
2019-02-27T00:31:23.421Z,77.35
2019-02-27T00:33:52.276Z,66.95
2019-02-27T00:36:20.328Z,65.95
2019-02-27T00:38:48.402Z,63.25
2019-02-27T00:41:16.491Z,67.27
2019-02-27T00:43:45.055Z,70.50
2019-02-27T00:46:13.301Z,67.20
2019-02-27T00:48:42.428Z,64.53
2019-02-27T00:51:11.967Z,68.47
2019-02-27T00:53:41.469Z,74.15
2019-02-27T00:56:11.986Z,72.67
2019-02-27T00:58:39.976Z,70.90
2019-02-27T01:01:10.032Z,68.75
2019-02-27T01:03:37.736Z,70.42
2019-02-27T01:06:05.776Z,70.50
2019-02-27T01:08:34.607Z,70.75
2019-02-27T01:11:03.383Z,69.90
2019-02-27T01:13:31.854Z,71.33
2019-02-27T01:16:00.341Z,76.05
2019-02-27T01:18:30.757Z,78.40
2019-02-27T01:20:58.734Z,73.50
2019-02-27T01:23:27.559Z,72.07
2019-02-27T01:25:56.889Z,75.75
2019-02-27T01:28:25.922Z,78.95
2019-02-27T01:30:54.622Z,74.62
2019-02-27T01:33:23.020Z,71.45
2019-02-27T01:35:52.304Z,76.75
2019-02-27T01:38:20.775Z,78.87
2019-02-27T01:40:51.146Z,75.08
2019-02-27T01:43:19.101Z,71.05
2019-02-27T01:45:47.145Z,74.25
2019-02-27T01:48:15.237Z,74.82
2019-02-27T01:50:43.619Z,72.97
2019-02-27T01:53:11.952Z,66.90
2019-02-27T01:55:40.281Z,68.05
2019-02-27T01:58:09.604Z,67.20
2019-02-27T02:00:39.296Z,72.72
2019-02-27T02:03:07.357Z,70.60
2019-02-27T02:05:35.743Z,71.75
2019-02-27T02:08:04.152Z,71.10
2019-02-27T02:10:32.196Z,68.25
2019-02-27T02:13:02.675Z,67.37
2019-02-27T02:15:50.420Z,68.00
2019-02-27T02:18:40.648Z,68.83
2019-02-27T02:21:21.156Z,71.70
2019-02-27T02:24:08.296Z,66.37
2019-02-27T02:26:47.042Z,70.62
2019-02-27T02:29:34.161Z,74.53
2019-02-27T02:32:07.435Z,75.20
2019-02-27T02:35:03.553Z,66.90
2019-02-27T02:37:56.673Z,71.77
2019-02-27T02:40:43.000Z,69.13
2019-02-27T02:43:22.603Z,69.35
2019-02-27T02:45:57.169Z,66.75
2019-02-27T02:48:47.892Z,68.72
2019-02-27T02:51:20.485Z,66.95
2019-02-27T02:54:00.120Z,69.50
2019-02-27T02:56:36.857Z,69.10
2019-02-27T02:59:24.943Z,74.47
2019-02-27T03:01:55.008Z,73.05
2019-02-27T03:04:49.197Z,68.17
2019-02-27T03:07:44.748Z,68.28
2019-02-27T03:10:24.537Z,67.60
2019-02-27T03:13:05.781Z,70.17
2019-02-27T03:15:43.193Z,72.27
2019-02-27T03:18:34.083Z,67.40
2019-02-27T03:21:28.538Z,68.62
2019-02-27T03:24:27.856Z,67.67
2019-02-27T03:27:14.908Z,68.90
2019-02-27T03:30:08.149Z,69.42
2019-02-27T03:32:58.445Z,68.25
2019-02-27T03:35:32.426Z,67.95
2019-02-27T03:38:24.023Z,65.20
2019-02-27T03:41:14.453Z,70.25
2019-02-27T03:44:10.560Z,69.10
2019-02-27T03:46:50.174Z,74.47
2019-02-27T03:49:40.966Z,70.08
2019-02-27T03:52:46.433Z,67.72
2019-02-27T03:55:33.142Z,67.53
2019-02-27T03:58:19.128Z,68.35
2019-02-27T04:01:18.464Z,68.80
2019-02-27T04:04:11.500Z,70.57
2019-02-27T04:06:53.107Z,69.77
2019-02-27T04:09:22.680Z,66.25
2019-02-27T04:11:51.077Z,72.72
2019-02-27T04:14:32.529Z,70.08
2019-02-27T04:17:05.478Z,71.95
2019-02-27T04:19:30.393Z,72.67
2019-02-27T04:22:01.138Z,71.15
2019-02-27T04:24:28.136Z,71.05
2019-02-27T04:26:56.459Z,69.20
2019-02-27T04:29:24.503Z,72.70
2019-02-27T04:31:52.588Z,72.15
2019-02-27T04:34:21.301Z,71.85
2019-02-27T04:36:49.889Z,71.67
2019-02-27T04:39:18.529Z,72.45
2019-02-27T04:41:46.865Z,73.47
2019-02-27T04:44:15.245Z,76.85
2019-02-27T04:46:43.291Z,71.17
2019-02-27T04:49:11.329Z,73.87
2019-02-27T04:51:39.963Z,72.70
2019-02-27T04:54:08.325Z,70.70
2019-02-27T04:56:36.705Z,70.03
2019-02-27T04:59:05.093Z,69.15
2019-02-27T05:01:36.398Z,75.03
2019-02-27T05:04:03.503Z,71.55
2019-02-27T05:06:32.489Z,72.25
2019-02-27T05:09:01.176Z,69.22
2019-02-27T05:11:29.277Z,74.15
2019-02-27T05:13:57.311Z,69.37
2019-02-27T05:16:26.025Z,73.05
2019-02-27T05:18:54.071Z,70.92
2019-02-27T05:21:22.368Z,72.45
2019-02-27T05:23:51.370Z,71.92
2019-02-27T05:26:19.422Z,67.85
2019-02-27T05:28:48.209Z,68.22
2019-02-27T05:31:19.003Z,67.22
2019-02-27T05:33:46.461Z,66.70
2019-02-27T05:36:14.876Z,66.37
2019-02-27T05:38:43.615Z,61.20
2019-02-27T05:41:12.489Z,68.57
2019-02-27T05:43:40.840Z,65.95
2019-02-27T05:46:09.629Z,69.92
2019-02-27T05:48:38.022Z,61.40
2019-02-27T05:51:07.586Z,65.83
2019-02-27T05:53:36.353Z,64.40
2019-02-27T05:56:04.789Z,61.58
2019-02-27T05:58:33.177Z,63.10
2019-02-27T06:01:02.084Z,65.37
2019-02-27T06:03:31.900Z,66.97
2019-02-27T06:06:00.359Z,58.00
2019-02-27T06:08:29.041Z,61.55
2019-02-27T06:10:57.127Z,62.88
2019-02-27T06:13:25.504Z,62.73
2019-02-27T06:15:53.598Z,66.50
2019-02-27T06:18:23.402Z,63.13
2019-02-27T06:20:51.952Z,63.07
2019-02-27T06:23:20.335Z,63.70
2019-02-27T06:25:48.701Z,62.85
2019-02-27T06:28:18.704Z,66.10
2019-02-27T06:30:46.697Z,60.63
2019-02-27T06:33:15.288Z,61.73
2019-02-27T06:35:43.968Z,61.58
2019-02-27T06:38:12.064Z,64.60
2019-02-27T06:40:42.312Z,58.05
2019-02-27T06:43:10.648Z,64.75
2019-02-27T06:45:38.658Z,56.25
2019-02-27T06:48:10.243Z,60.70
2019-02-27T06:50:37.288Z,59.98
2019-02-27T06:53:05.324Z,66.83
2019-02-27T06:55:33.966Z,64.20
2019-02-27T06:58:02.409Z,65.52
2019-02-27T07:00:35.950Z,53.80
2019-02-27T07:03:00.851Z,51.23
2019-02-27T07:05:28.914Z,51.20
2019-02-27T07:07:57.186Z,45.75
2019-02-27T07:10:28.188Z,49.47
2019-02-27T07:12:56.955Z,59.00
2019-02-27T07:15:26.025Z,51.33
2019-02-27T07:17:54.804Z,43.30
2019-02-27T07:20:24.527Z,51.37
2019-02-27T07:22:54.055Z,47.62
2019-02-27T07:25:22.390Z,57.07
2019-02-27T07:27:51.098Z,55.65
2019-02-27T07:30:19.441Z,56.88
2019-02-27T07:32:47.476Z,59.18
2019-02-27T07:35:15.693Z,67.55
2019-02-27T07:37:46.998Z,60.10
2019-02-27T07:40:14.521Z,46.75
2019-02-27T07:42:42.672Z,44.23
2019-02-27T07:45:11.987Z,42.75
2019-02-27T07:47:40.399Z,41.93
2019-02-27T07:50:09.600Z,44.35
2019-02-27T07:52:38.380Z,48.23
2019-02-27T07:55:18.578Z,47.13
2019-02-27T07:57:37.129Z,49.70
2019-02-27T08:00:05.718Z,44.80
2019-02-27T08:02:36.180Z,40.55
2019-02-27T08:05:04.527Z,41.25
2019-02-27T08:07:32.564Z,41.00
2019-02-27T08:10:04.535Z,39.42
2019-02-27T08:12:31.137Z,37.30
2019-02-27T08:14:59.929Z,42.53
2019-02-27T08:17:28.464Z,37.63
2019-02-27T08:19:56.920Z,36.97
2019-02-27T08:22:25.271Z,38.05
2019-02-27T08:24:53.699Z,36.45
2019-02-27T08:27:21.724Z,42.20
2019-02-27T08:29:49.802Z,40.45
2019-02-27T08:32:17.875Z,40.95
2019-02-27T08:34:45.992Z,39.80
2019-02-27T08:37:14.732Z,39.25
2019-02-27T08:39:43.089Z,37.73
2019-02-27T08:42:11.550Z,38.75
2019-02-27T08:44:39.960Z,36.20
2019-02-27T08:47:10.322Z,36.28
2019-02-27T08:49:38.393Z,40.50
2019-02-27T08:52:08.371Z,37.80
2019-02-27T08:54:36.461Z,38.53
2019-02-27T08:57:04.489Z,36.68
2019-02-27T08:59:32.544Z,35.45
2019-02-27T09:02:00.656Z,38.98
2019-02-27T09:04:29.171Z,37.08
2019-02-27T09:07:02.151Z,42.33
2019-02-27T09:09:27.962Z,36.30
2019-02-27T09:11:55.997Z,35.00
2019-02-27T09:14:24.114Z,37.13
2019-02-27T09:16:52.483Z,36.45
2019-02-27T09:19:20.931Z,36.90
2019-02-27T09:21:49.390Z,38.35
2019-02-27T09:24:17.464Z,36.75
2019-02-27T09:26:45.809Z,35.38
2019-02-27T09:29:18.423Z,35.58
2019-02-27T09:31:50.732Z,36.38
2019-02-27T09:34:13.950Z,37.67
2019-02-27T09:36:43.285Z,39.13
2019-02-27T09:39:11.869Z,36.13
2019-02-27T09:41:39.956Z,35.83
2019-02-27T09:44:08.508Z,35.28
2019-02-27T09:46:37.081Z,34.03
2019-02-27T09:49:07.079Z,38.08
2019-02-27T09:51:34.833Z,35.48
2019-02-27T09:54:03.586Z,34.23
2019-02-27T09:56:32.790Z,34.23
2019-02-27T09:59:00.860Z,34.60
2019-02-27T10:01:29.265Z,36.03
2019-02-27T10:03:57.710Z,33.28
2019-02-27T10:06:26.045Z,32.30
2019-02-27T10:08:56.487Z,32.80
2019-02-27T10:11:24.716Z,37.38
2019-02-27T10:13:52.787Z,36.53
2019-02-27T10:16:21.226Z,36.17
2019-02-27T10:18:54.819Z,36.77
2019-02-27T10:21:19.868Z,33.35
2019-02-27T10:23:48.207Z,36.10
2019-02-27T10:26:16.572Z,35.33
2019-02-27T10:28:46.781Z,32.75
2019-02-27T10:31:14.836Z,33.10
2019-02-27T10:33:43.672Z,34.18
2019-02-27T10:36:11.822Z,34.23
2019-02-27T10:38:41.007Z,32.90
2019-02-27T10:41:09.316Z,32.73
2019-02-27T10:43:37.651Z,34.90
2019-02-27T10:46:06.309Z,33.75
2019-02-27T10:48:36.807Z,33.73
2019-02-27T10:51:04.927Z,36.03
2019-02-27T10:53:33.550Z,34.23
2019-02-27T10:56:01.596Z,38.28
2019-02-27T10:58:29.656Z,31.37
2019-02-27T11:01:00.752Z,32.63
2019-02-27T11:03:27.470Z,32.78
2019-02-27T11:05:56.228Z,30.82
2019-02-27T11:08:28.910Z,31.70
2019-02-27T11:10:54.838Z,33.13
2019-02-27T11:13:22.864Z,32.60
2019-02-27T11:15:50.955Z,30.77
2019-02-27T11:18:19.672Z,29.32
2019-02-27T11:20:47.777Z,32.98
2019-02-27T11:23:16.129Z,28.70
2019-02-27T11:25:44.493Z,30.55
2019-02-27T11:28:12.864Z,30.08
2019-02-27T11:30:41.236Z,28.80
2019-02-27T11:33:09.733Z,30.97
2019-02-27T11:35:37.803Z,29.50
2019-02-27T11:38:06.733Z,30.55
2019-02-27T11:40:34.824Z,29.15
2019-02-27T11:43:06.580Z,27.90
2019-02-27T11:45:33.984Z,30.70
2019-02-27T11:48:02.405Z,29.37
2019-02-27T11:50:30.484Z,30.32
2019-02-27T11:53:02.789Z,30.30
2019-02-27T11:55:29.081Z,28.07
2019-02-27T11:57:57.183Z,26.30
2019-02-27T12:00:27.145Z,28.02
2019-02-27T12:02:55.411Z,24.90
2019-02-27T12:05:23.399Z,25.87
2019-02-27T12:07:52.093Z,27.95
2019-02-27T12:10:21.273Z,26.37
2019-02-27T12:12:49.375Z,26.13
2019-02-27T12:15:17.802Z,29.60
2019-02-27T12:17:47.035Z,27.07
2019-02-27T12:20:18.161Z,27.47
2019-02-27T12:22:46.433Z,29.23
2019-02-27T12:25:14.751Z,24.70
2019-02-27T12:27:49.126Z,28.27
2019-02-27T12:30:13.735Z,26.27
2019-02-27T12:32:41.868Z,26.57
2019-02-27T12:35:11.461Z,25.47
2019-02-27T12:37:39.909Z,28.02
2019-02-27T12:40:08.935Z,26.23
2019-02-27T12:42:37.627Z,23.75
2019-02-27T12:45:08.100Z,21.65
2019-02-27T12:47:37.620Z,24.27
2019-02-27T12:50:06.504Z,27.27
2019-02-27T12:52:35.181Z,23.20
2019-02-27T12:55:03.221Z,24.50
2019-02-27T12:57:31.252Z,23.90
2019-02-27T12:59:59.715Z,22.95
2019-02-27T13:02:35.415Z,23.70
2019-02-27T13:04:58.202Z,22.27
2019-02-27T13:07:27.696Z,22.67
2019-02-27T13:09:58.460Z,21.77
2019-02-27T13:12:25.810Z,23.85
2019-02-27T13:14:53.841Z,22.32
2019-02-27T13:17:22.277Z,21.50
2019-02-27T13:19:50.629Z,19.75
2019-02-27T13:22:19.317Z,22.90
2019-02-27T13:24:50.184Z,21.12
2019-02-27T13:27:17.401Z,22.25
2019-02-27T13:29:45.477Z,21.75
2019-02-27T13:32:13.853Z,20.90
2019-02-27T13:34:41.891Z,20.32
2019-02-27T13:37:10.434Z,22.03
2019-02-27T13:39:38.896Z,20.60
2019-02-27T13:42:07.285Z,20.72
2019-02-27T13:44:35.755Z,21.62
2019-02-27T13:47:03.820Z,22.10
2019-02-27T13:49:32.194Z,20.65
2019-02-27T13:52:00.888Z,20.15
2019-02-27T13:54:29.602Z,21.07
2019-02-27T13:56:57.675Z,20.27
2019-02-27T13:59:25.756Z,18.30
2019-02-27T14:01:54.105Z,19.05
2019-02-27T14:04:22.748Z,18.85
2019-02-27T14:06:50.869Z,21.10
2019-02-27T14:09:19.256Z,22.98
2019-02-27T14:11:47.320Z,21.25
2019-02-27T14:14:17.625Z,20.50
2019-02-27T14:16:45.718Z,22.65
2019-02-27T14:19:13.715Z,18.77
2019-02-27T14:21:42.269Z,18.12
2019-02-27T14:24:10.975Z,18.55
2019-02-27T14:26:41.455Z,17.90
2019-02-27T14:29:09.967Z,41.08
2019-02-27T14:31:40.089Z,34.03
2019-02-27T14:34:08.327Z,34.85
2019-02-27T14:36:39.394Z,18.03
2019-02-27T14:39:08.831Z,17.48
2019-02-27T14:41:37.043Z,17.87
2019-02-27T14:44:05.104Z,15.70
2019-02-27T14:46:33.272Z,19.00
2019-02-27T14:49:02.913Z,17.23
2019-02-27T14:51:31.063Z,18.73
2019-02-27T14:54:01.567Z,17.10
2019-02-27T14:56:29.751Z,17.73
2019-02-27T14:58:57.951Z,17.15
2019-02-27T15:01:27.052Z,16.90
2019-02-27T15:03:55.266Z,18.35
2019-02-27T15:06:25.104Z,16.95
2019-02-27T15:08:58.021Z,19.73
2019-02-27T15:11:23.427Z,17.37
2019-02-27T15:13:51.899Z,17.35
2019-02-27T15:16:21.835Z,31.30
2019-02-27T15:18:55.063Z,36.77
2019-02-27T15:21:20.888Z,21.75
2019-02-27T15:23:49.477Z,24.20
2019-02-27T15:26:18.309Z,20.50
2019-02-27T15:28:46.511Z,29.02
2019-02-27T15:31:18.059Z,29.30
2019-02-27T15:33:46.344Z,26.77
2019-02-27T15:36:15.377Z,34.08
2019-02-27T15:38:46.142Z,32.15
2019-02-27T15:41:13.888Z,54.83
2019-02-27T15:43:42.718Z,36.95
2019-02-27T15:46:10.939Z,24.98
2019-02-27T15:48:40.955Z,25.12
2019-02-27T15:51:09.225Z,23.18
2019-02-27T15:53:37.339Z,19.85
2019-02-27T15:56:07.954Z,23.65
2019-02-27T15:58:35.748Z,111.60
2019-02-27T16:01:04.487Z,30.88
2019-02-27T16:03:32.605Z,28.90
2019-02-27T16:06:05.053Z,19.25
2019-02-27T16:08:30.489Z,23.18
2019-02-27T16:11:00.539Z,22.25
2019-02-27T16:13:28.651Z,20.77
2019-02-27T16:15:57.463Z,19.15
2019-02-27T16:18:26.203Z,20.27
2019-02-27T16:20:54.313Z,20.50
2019-02-27T16:23:22.928Z,18.70
2019-02-27T16:25:54.098Z,19.95
2019-02-27T16:28:20.740Z,21.50
2019-02-27T16:30:49.625Z,19.07
2019-02-27T16:33:23.117Z,20.77
2019-02-27T16:35:48.337Z,23.52
2019-02-27T16:38:16.751Z,19.50
2019-02-27T16:40:45.303Z,20.30
2019-02-27T16:43:14.455Z,20.77
2019-02-27T16:45:44.615Z,21.87
2019-02-27T16:48:12.855Z,21.15
2019-02-27T16:50:40.877Z,19.90
2019-02-27T16:53:09.957Z,19.82
2019-02-27T16:55:39.571Z,22.22
2019-02-27T16:58:07.848Z,22.30
2019-02-27T17:00:36.369Z,21.90
2019-02-27T17:03:04.423Z,24.90
2019-02-27T17:05:33.304Z,19.32
2019-02-27T17:08:02.717Z,19.82
2019-02-27T17:10:31.049Z,18.48
2019-02-27T17:12:59.561Z,18.42
2019-02-27T17:15:27.604Z,21.85
2019-02-27T17:17:55.692Z,17.45
2019-02-27T17:20:24.399Z,30.20
2019-02-27T17:22:52.876Z,25.40
2019-02-27T17:25:21.087Z,22.27
2019-02-27T17:27:51.220Z,17.60
2019-02-27T17:30:20.476Z,26.55
2019-02-27T17:32:48.533Z,19.80
2019-02-27T17:35:16.959Z,17.87
2019-02-27T17:37:45.448Z,18.77
2019-02-27T17:40:13.665Z,17.25
2019-02-27T17:42:41.724Z,20.95
2019-02-27T17:45:13.105Z,19.40
2019-02-27T17:47:40.675Z,19.40
2019-02-27T17:50:09.660Z,20.37
2019-02-27T17:52:37.744Z,20.20
2019-02-27T17:55:06.691Z,107.72
2019-02-27T17:57:35.882Z,62.80
2019-02-27T18:00:04.275Z,24.45
2019-02-27T18:02:33.198Z,20.17
2019-02-27T18:05:01.982Z,18.50
2019-02-27T18:07:34.319Z,18.70
2019-02-27T18:10:02.325Z,21.07
2019-02-27T18:12:30.850Z,18.32
2019-02-27T18:14:59.968Z,16.50
2019-02-27T18:17:29.191Z,16.52
2019-02-27T18:19:58.388Z,19.77
2019-02-27T18:22:27.083Z,16.80
2019-02-27T18:24:55.478Z,19.32
2019-02-27T18:27:25.428Z,32.90
2019-02-27T18:29:53.945Z,23.67
2019-02-27T18:32:22.436Z,17.92
2019-02-27T18:34:54.397Z,15.68
2019-02-27T18:37:20.512Z,17.32
2019-02-27T18:39:48.582Z,15.07
2019-02-27T18:42:17.257Z,17.32
2019-02-27T18:44:46.984Z,14.78
2019-02-27T18:47:15.360Z,17.02
2019-02-27T18:49:43.712Z,13.90
2019-02-27T18:52:11.800Z,14.18
2019-02-27T18:54:40.727Z,16.12
2019-02-27T18:57:11.896Z,15.50
2019-02-27T18:59:41.391Z,17.85
2019-02-27T19:02:09.827Z,13.72
2019-02-27T19:04:38.154Z,15.05
2019-02-27T19:07:06.263Z,14.35
2019-02-27T19:09:34.828Z,14.20
2019-02-27T19:12:03.003Z,15.28
2019-02-27T19:14:31.543Z,15.20
2019-02-27T19:17:01.337Z,19.95
2019-02-27T19:19:29.558Z,14.18
2019-02-27T19:21:57.684Z,15.13
2019-02-27T19:24:27.567Z,28.75
2019-02-27T19:26:55.775Z,19.60
2019-02-27T19:29:24.081Z,16.85
2019-02-27T19:31:52.291Z,14.20
2019-02-27T19:34:20.742Z,18.62
2019-02-27T19:36:48.941Z,14.50
2019-02-27T19:39:18.324Z,15.95
2019-02-27T19:41:48.201Z,13.03
2019-02-27T19:44:16.246Z,12.97
2019-02-27T19:46:47.461Z,12.77
2019-02-27T19:49:15.305Z,13.55
2019-02-27T19:51:45.081Z,15.40
2019-02-27T19:54:14.881Z,12.65
2019-02-27T19:56:43.979Z,13.60
2019-02-27T19:59:12.038Z,14.78
2019-02-27T20:01:46.277Z,15.70
2019-02-27T20:04:10.647Z,17.32
2019-02-27T20:06:38.817Z,14.40
2019-02-27T20:09:07.267Z,13.80
2019-02-27T20:11:39.923Z,13.70
2019-02-27T20:14:05.640Z,17.37
2019-02-27T20:16:33.881Z,25.60
2019-02-27T20:19:02.921Z,20.40
2019-02-27T20:21:31.064Z,18.73
2019-02-27T20:24:01.427Z,15.80
2019-02-27T20:26:29.471Z,16.70
2019-02-27T20:28:57.867Z,17.87
2019-02-27T20:31:26.661Z,17.27
2019-02-27T20:33:55.136Z,17.30
2019-02-27T20:36:29.714Z,17.40
2019-02-27T20:38:54.521Z,16.70
2019-02-27T20:41:23.081Z,15.17
2019-02-27T20:43:51.353Z,21.27
2019-02-27T20:46:19.537Z,17.57
2019-02-27T20:48:48.228Z,18.90
2019-02-27T20:51:16.619Z,18.70
2019-02-27T20:53:44.684Z,18.02
2019-02-27T20:56:12.878Z,53.33
2019-02-27T20:58:40.899Z,18.32
2019-02-27T21:01:11.030Z,17.17
2019-02-27T21:03:39.423Z,17.85
2019-02-27T21:06:07.921Z,17.40
2019-02-27T21:08:36.830Z,17.48
2019-02-27T21:11:05.377Z,19.60
2019-02-27T21:13:33.490Z,19.55
2019-02-27T21:16:03.964Z,22.80
2019-02-27T21:18:32.559Z,24.77
2019-02-27T21:21:01.402Z,24.43
2019-02-27T21:23:31.854Z,19.80
2019-02-27T21:25:59.816Z,20.08
2019-02-27T21:28:27.852Z,15.93
2019-02-27T21:30:56.673Z,20.40
2019-02-27T21:33:25.260Z,17.15
2019-02-27T21:35:53.835Z,17.95
2019-02-27T21:38:22.297Z,19.17
2019-02-27T21:40:50.549Z,19.77
2019-02-27T21:43:19.120Z,18.92
2019-02-27T21:45:47.692Z,19.35
2019-02-27T21:48:15.871Z,19.55
2019-02-27T21:50:45.262Z,18.37
2019-02-27T21:53:13.683Z,19.95
2019-02-27T21:55:44.738Z,18.42
2019-02-27T21:58:20.039Z,20.05
2019-02-27T22:00:42.037Z,19.37
2019-02-27T22:03:10.262Z,20.97
2019-02-27T22:05:42.856Z,21.85
2019-02-27T22:08:09.129Z,21.02
2019-02-27T22:10:37.658Z,21.50
2019-02-27T22:13:09.299Z,21.93
2019-02-27T22:15:35.980Z,27.93
2019-02-27T22:18:03.987Z,26.37
2019-02-27T22:20:32.380Z,25.07
2019-02-27T22:23:00.828Z,33.78
2019-02-27T22:25:31.035Z,37.45
2019-02-27T22:27:59.517Z,24.95
2019-02-27T22:30:27.954Z,23.50
2019-02-27T22:32:56.381Z,23.15
2019-02-27T22:35:25.189Z,20.72
2019-02-27T22:37:53.287Z,23.20
2019-02-27T22:40:21.975Z,21.95
2019-02-27T22:42:52.086Z,24.20
2019-02-27T22:45:20.527Z,25.40
2019-02-27T22:47:49.821Z,22.15
2019-02-27T22:50:20.283Z,21.15
2019-02-27T22:52:54.185Z,20.85
2019-02-27T22:55:18.340Z,23.20
2019-02-27T22:57:47.147Z,21.10
2019-02-27T23:00:29.463Z,23.03
2019-02-27T23:02:57.777Z,23.35
2019-02-27T23:05:25.881Z,26.37
2019-02-27T23:07:54.525Z,23.70
2019-02-27T23:10:23.382Z,23.57
2019-02-27T23:12:54.803Z,22.42
2019-02-27T23:15:24.761Z,23.60
2019-02-27T23:17:53.493Z,23.15
2019-02-27T23:20:21.687Z,24.70
2019-02-27T23:22:49.854Z,28.67
2019-02-27T23:25:18.038Z,29.92
2019-02-27T23:27:46.380Z,26.73
2019-02-27T23:30:15.901Z,26.12
2019-02-27T23:32:44.245Z,25.70
2019-02-27T23:35:15.700Z,22.90
2019-02-27T23:37:42.552Z,24.23
2019-02-27T23:40:10.974Z,26.75
2019-02-27T23:42:39.104Z,25.55
2019-02-27T23:45:10.309Z,27.52
2019-02-27T23:47:39.434Z,25.43
2019-02-27T23:50:10.857Z,26.33
2019-02-27T23:52:37.637Z,26.30
2019-02-27T23:55:07.177Z,25.77
2019-02-27T23:57:36.686Z,25.97
